sensor_id;sensor_type;location;lat;lon;timestamp;P1;durP1;ratioP1;P2;durP2;ratioP2
5876;SDS011;2964;42.144;24.730;2023-02-19T00:00:54;6.70;;;6.00;;
5876;SDS011;2964;42.144;24.730;2023-02-19T00:03:21;7.10;;;6.60;;
5876;SDS011;2964;42.144;24.730;2023-02-19T00:05:47;7.60;;;6.80;;
5876;SDS011;2964;42.144;24.730;2023-02-19T00:08:14;8.07;;;7.27;;
5876;SDS011;2964;42.144;24.730;2023-02-19T00:10:42;7.57;;;6.43;;
5876;SDS011;2964;42.144;24.730;2023-02-19T00:13:09;8.67;;;7.77;;
5876;SDS011;2964;42.144;24.730;2023-02-19T00:15:36;9.80;;;7.93;;
5876;SDS011;2964;42.144;24.730;2023-02-19T00:18:02;10.37;;;8.47;;
5876;SDS011;2964;42.144;24.730;2023-02-19T00:20:29;8.60;;;7.80;;
5876;SDS011;2964;42.144;24.730;2023-02-19T00:22:56;8.87;;;8.07;;
5876;SDS011;2964;42.144;24.730;2023-02-19T00:25:22;9.77;;;8.77;;
5876;SDS011;2964;42.144;24.730;2023-02-19T00:27:50;14.30;;;9.27;;
5876;SDS011;2964;42.144;24.730;2023-02-19T00:30:17;9.87;;;8.87;;
5876;SDS011;2964;42.144;24.730;2023-02-19T00:32:48;12.73;;;10.33;;
5876;SDS011;2964;42.144;24.730;2023-02-19T00:35:16;12.80;;;9.93;;
5876;SDS011;2964;42.144;24.730;2023-02-19T00:37:42;14.23;;;10.47;;
5876;SDS011;2964;42.144;24.730;2023-02-19T00:40:09;11.93;;;10.70;;
5876;SDS011;2964;42.144;24.730;2023-02-19T00:42:36;14.33;;;10.77;;
5876;SDS011;2964;42.144;24.730;2023-02-19T00:45:04;15.33;;;12.03;;
5876;SDS011;2964;42.144;24.730;2023-02-19T00:47:31;12.80;;;11.10;;
5876;SDS011;2964;42.144;24.730;2023-02-19T00:49:58;16.53;;;10.43;;
5876;SDS011;2964;42.144;24.730;2023-02-19T00:52:25;11.93;;;10.73;;
5876;SDS011;2964;42.144;24.730;2023-02-19T00:54:51;18.33;;;11.70;;
5876;SDS011;2964;42.144;24.730;2023-02-19T00:57:18;15.23;;;11.33;;
5876;SDS011;2964;42.144;24.730;2023-02-19T00:59:45;16.97;;;12.50;;
5876;SDS011;2964;42.144;24.730;2023-02-19T01:02:13;14.13;;;12.43;;
5876;SDS011;2964;42.144;24.730;2023-02-19T01:04:39;13.00;;;11.50;;
5876;SDS011;2964;42.144;24.730;2023-02-19T01:07:06;14.47;;;12.03;;
5876;SDS011;2964;42.144;24.730;2023-02-19T01:09:33;16.90;;;12.30;;
5876;SDS011;2964;42.144;24.730;2023-02-19T01:11:59;17.60;;;12.47;;
5876;SDS011;2964;42.144;24.730;2023-02-19T01:14:26;13.63;;;11.93;;
5876;SDS011;2964;42.144;24.730;2023-02-19T01:16:53;14.23;;;12.10;;
5876;SDS011;2964;42.144;24.730;2023-02-19T01:19:21;16.03;;;11.93;;
5876;SDS011;2964;42.144;24.730;2023-02-19T01:21:47;20.17;;;12.60;;
5876;SDS011;2964;42.144;24.730;2023-02-19T01:24:14;16.37;;;12.77;;
5876;SDS011;2964;42.144;24.730;2023-02-19T01:26:41;15.17;;;11.50;;
5876;SDS011;2964;42.144;24.730;2023-02-19T01:29:08;14.30;;;12.00;;
5876;SDS011;2964;42.144;24.730;2023-02-19T01:31:35;16.00;;;11.33;;
5876;SDS011;2964;42.144;24.730;2023-02-19T01:34:02;13.87;;;11.43;;
5876;SDS011;2964;42.144;24.730;2023-02-19T01:36:31;13.00;;;11.30;;
5876;SDS011;2964;42.144;24.730;2023-02-19T01:38:59;19.70;;;11.60;;
5876;SDS011;2964;42.144;24.730;2023-02-19T01:41:28;12.90;;;11.53;;
5876;SDS011;2964;42.144;24.730;2023-02-19T01:43:56;11.97;;;10.87;;
5876;SDS011;2964;42.144;24.730;2023-02-19T01:46:25;12.07;;;10.83;;
5876;SDS011;2964;42.144;24.730;2023-02-19T01:48:52;14.37;;;11.63;;
5876;SDS011;2964;42.144;24.730;2023-02-19T01:51:21;13.97;;;11.57;;
5876;SDS011;2964;42.144;24.730;2023-02-19T01:53:50;12.17;;;10.43;;
5876;SDS011;2964;42.144;24.730;2023-02-19T01:56:21;11.70;;;10.50;;
5876;SDS011;2964;42.144;24.730;2023-02-19T01:58:50;13.63;;;11.47;;
5876;SDS011;2964;42.144;24.730;2023-02-19T02:01:17;14.33;;;11.13;;
5876;SDS011;2964;42.144;24.730;2023-02-19T02:03:45;12.20;;;9.97;;
5876;SDS011;2964;42.144;24.730;2023-02-19T02:06:14;11.47;;;10.07;;
5876;SDS011;2964;42.144;24.730;2023-02-19T02:08:46;10.73;;;9.60;;
5876;SDS011;2964;42.144;24.730;2023-02-19T02:11:34;17.20;;;11.27;;
5876;SDS011;2964;42.144;24.730;2023-02-19T02:14:01;19.87;;;10.53;;
5876;SDS011;2964;42.144;24.730;2023-02-19T02:16:32;11.80;;;10.07;;
5876;SDS011;2964;42.144;24.730;2023-02-19T02:19:06;13.70;;;10.50;;
5876;SDS011;2964;42.144;24.730;2023-02-19T02:21:51;11.27;;;10.10;;
5876;SDS011;2964;42.144;24.730;2023-02-19T02:27:28;12.30;;;10.27;;
5876;SDS011;2964;42.144;24.730;2023-02-19T02:33:04;10.43;;;9.43;;
5876;SDS011;2964;42.144;24.730;2023-02-19T02:35:38;10.83;;;9.73;;
5876;SDS011;2964;42.144;24.730;2023-02-19T02:38:09;10.63;;;9.70;;
5876;SDS011;2964;42.144;24.730;2023-02-19T02:40:40;14.87;;;10.27;;
5876;SDS011;2964;42.144;24.730;2023-02-19T02:43:09;11.90;;;9.90;;
5876;SDS011;2964;42.144;24.730;2023-02-19T02:45:37;11.10;;;9.27;;
5876;SDS011;2964;42.144;24.730;2023-02-19T02:48:16;10.27;;;9.17;;
5876;SDS011;2964;42.144;24.730;2023-02-19T02:50:49;9.43;;;8.53;;
5876;SDS011;2964;42.144;24.730;2023-02-19T02:53:19;10.57;;;9.43;;
5876;SDS011;2964;42.144;24.730;2023-02-19T02:56:09;10.57;;;9.30;;
5876;SDS011;2964;42.144;24.730;2023-02-19T02:58:37;10.00;;;8.93;;
5876;SDS011;2964;42.144;24.730;2023-02-19T03:01:07;11.37;;;8.03;;
5876;SDS011;2964;42.144;24.730;2023-02-19T03:03:55;8.50;;;7.70;;
5876;SDS011;2964;42.144;24.730;2023-02-19T03:06:27;8.77;;;7.87;;
5876;SDS011;2964;42.144;24.730;2023-02-19T03:08:57;8.83;;;8.03;;
5876;SDS011;2964;42.144;24.730;2023-02-19T03:11:30;8.20;;;7.57;;
5876;SDS011;2964;42.144;24.730;2023-02-19T03:14:17;11.00;;;8.20;;
5876;SDS011;2964;42.144;24.730;2023-02-19T03:17:07;8.43;;;7.73;;
5876;SDS011;2964;42.144;24.730;2023-02-19T03:19:57;8.63;;;7.80;;
5876;SDS011;2964;42.144;24.730;2023-02-19T03:22:28;8.17;;;7.47;;
5876;SDS011;2964;42.144;24.730;2023-02-19T03:24:59;8.70;;;7.50;;
5876;SDS011;2964;42.144;24.730;2023-02-19T03:27:47;8.63;;;7.70;;
5876;SDS011;2964;42.144;24.730;2023-02-19T03:30:16;9.00;;;7.90;;
5876;SDS011;2964;42.144;24.730;2023-02-19T03:32:47;9.67;;;8.03;;
5876;SDS011;2964;42.144;24.730;2023-02-19T03:35:20;9.03;;;8.20;;
5876;SDS011;2964;42.144;24.730;2023-02-19T03:37:49;10.27;;;7.70;;
5876;SDS011;2964;42.144;24.730;2023-02-19T03:40:20;8.93;;;7.90;;
5876;SDS011;2964;42.144;24.730;2023-02-19T03:42:50;10.67;;;7.97;;
5876;SDS011;2964;42.144;24.730;2023-02-19T03:45:32;8.67;;;7.97;;
5876;SDS011;2964;42.144;24.730;2023-02-19T03:48:17;7.33;;;6.73;;
5876;SDS011;2964;42.144;24.730;2023-02-19T03:50:54;6.73;;;6.07;;
5876;SDS011;2964;42.144;24.730;2023-02-19T03:53:28;7.17;;;6.57;;
5876;SDS011;2964;42.144;24.730;2023-02-19T03:56:04;6.93;;;6.37;;
5876;SDS011;2964;42.144;24.730;2023-02-19T03:58:38;6.80;;;6.30;;
5876;SDS011;2964;42.144;24.730;2023-02-19T04:01:10;7.60;;;6.53;;
5876;SDS011;2964;42.144;24.730;2023-02-19T04:03:44;8.10;;;6.40;;
5876;SDS011;2964;42.144;24.730;2023-02-19T04:06:17;7.30;;;6.60;;
5876;SDS011;2964;42.144;24.730;2023-02-19T04:08:51;6.20;;;5.70;;
5876;SDS011;2964;42.144;24.730;2023-02-19T04:11:21;6.80;;;6.23;;
5876;SDS011;2964;42.144;24.730;2023-02-19T04:13:50;6.50;;;5.43;;
5876;SDS011;2964;42.144;24.730;2023-02-19T04:16:23;6.50;;;5.90;;
5876;SDS011;2964;42.144;24.730;2023-02-19T04:18:58;5.23;;;4.93;;
5876;SDS011;2964;42.144;24.730;2023-02-19T04:21:30;5.60;;;5.20;;
5876;SDS011;2964;42.144;24.730;2023-02-19T04:23:59;5.53;;;5.03;;
5876;SDS011;2964;42.144;24.730;2023-02-19T04:26:29;6.00;;;5.57;;
5876;SDS011;2964;42.144;24.730;2023-02-19T04:28:58;5.27;;;4.97;;
5876;SDS011;2964;42.144;24.730;2023-02-19T04:31:25;5.37;;;4.93;;
5876;SDS011;2964;42.144;24.730;2023-02-19T04:33:55;5.37;;;4.90;;
5876;SDS011;2964;42.144;24.730;2023-02-19T04:36:23;5.30;;;4.90;;
5876;SDS011;2964;42.144;24.730;2023-02-19T04:38:50;5.77;;;5.23;;
5876;SDS011;2964;42.144;24.730;2023-02-19T04:41:16;5.07;;;4.77;;
5876;SDS011;2964;42.144;24.730;2023-02-19T04:43:43;5.40;;;4.90;;
5876;SDS011;2964;42.144;24.730;2023-02-19T04:46:10;5.60;;;5.30;;
5876;SDS011;2964;42.144;24.730;2023-02-19T04:48:37;5.47;;;5.17;;
5876;SDS011;2964;42.144;24.730;2023-02-19T04:51:05;5.97;;;5.30;;
5876;SDS011;2964;42.144;24.730;2023-02-19T04:53:32;5.37;;;4.97;;
5876;SDS011;2964;42.144;24.730;2023-02-19T04:56:04;5.07;;;4.87;;
5876;SDS011;2964;42.144;24.730;2023-02-19T04:58:32;5.13;;;4.80;;
5876;SDS011;2964;42.144;24.730;2023-02-19T05:00:58;5.17;;;4.87;;
5876;SDS011;2964;42.144;24.730;2023-02-19T05:03:25;6.60;;;6.03;;
5876;SDS011;2964;42.144;24.730;2023-02-19T05:05:52;5.40;;;5.00;;
5876;SDS011;2964;42.144;24.730;2023-02-19T05:08:20;5.37;;;4.93;;
5876;SDS011;2964;42.144;24.730;2023-02-19T05:10:46;5.70;;;5.03;;
5876;SDS011;2964;42.144;24.730;2023-02-19T05:13:13;5.53;;;5.20;;
5876;SDS011;2964;42.144;24.730;2023-02-19T05:15:40;5.27;;;4.97;;
5876;SDS011;2964;42.144;24.730;2023-02-19T05:18:06;7.57;;;4.57;;
5876;SDS011;2964;42.144;24.730;2023-02-19T05:20:33;5.57;;;5.03;;
5876;SDS011;2964;42.144;24.730;2023-02-19T05:23:00;4.77;;;4.40;;
5876;SDS011;2964;42.144;24.730;2023-02-19T05:25:28;32.40;;;6.67;;
5876;SDS011;2964;42.144;24.730;2023-02-19T05:27:54;4.50;;;4.30;;
5876;SDS011;2964;42.144;24.730;2023-02-19T05:30:41;6.23;;;4.87;;
5876;SDS011;2964;42.144;24.730;2023-02-19T05:33:07;4.67;;;4.43;;
5876;SDS011;2964;42.144;24.730;2023-02-19T05:35:38;4.60;;;4.30;;
5876;SDS011;2964;42.144;24.730;2023-02-19T05:38:07;5.20;;;4.80;;
5876;SDS011;2964;42.144;24.730;2023-02-19T05:40:36;4.97;;;4.67;;
5876;SDS011;2964;42.144;24.730;2023-02-19T05:43:03;7.50;;;4.73;;
5876;SDS011;2964;42.144;24.730;2023-02-19T05:45:30;5.40;;;4.93;;
5876;SDS011;2964;42.144;24.730;2023-02-19T05:47:57;4.60;;;4.30;;
5876;SDS011;2964;42.144;24.730;2023-02-19T05:50:24;5.77;;;5.37;;
5876;SDS011;2964;42.144;24.730;2023-02-19T05:52:51;5.10;;;4.70;;
5876;SDS011;2964;42.144;24.730;2023-02-19T05:55:17;5.53;;;5.10;;
5876;SDS011;2964;42.144;24.730;2023-02-19T05:57:46;4.97;;;4.57;;
5876;SDS011;2964;42.144;24.730;2023-02-19T06:00:15;5.47;;;5.07;;
5876;SDS011;2964;42.144;24.730;2023-02-19T06:02:43;4.97;;;4.67;;
5876;SDS011;2964;42.144;24.730;2023-02-19T06:05:11;5.37;;;4.97;;
5876;SDS011;2964;42.144;24.730;2023-02-19T06:07:38;5.03;;;4.73;;
5876;SDS011;2964;42.144;24.730;2023-02-19T06:10:07;5.40;;;5.07;;
5876;SDS011;2964;42.144;24.730;2023-02-19T06:12:34;5.03;;;4.73;;
5876;SDS011;2964;42.144;24.730;2023-02-19T06:15:03;5.00;;;4.70;;
5876;SDS011;2964;42.144;24.730;2023-02-19T06:17:30;4.67;;;4.37;;
5876;SDS011;2964;42.144;24.730;2023-02-19T06:19:56;7.17;;;5.00;;
5876;SDS011;2964;42.144;24.730;2023-02-19T06:22:23;8.03;;;4.97;;
5876;SDS011;2964;42.144;24.730;2023-02-19T06:24:50;4.93;;;4.53;;
5876;SDS011;2964;42.144;24.730;2023-02-19T06:27:17;6.43;;;5.33;;
5876;SDS011;2964;42.144;24.730;2023-02-19T06:29:43;5.23;;;4.83;;
5876;SDS011;2964;42.144;24.730;2023-02-19T06:32:11;4.80;;;4.60;;
5876;SDS011;2964;42.144;24.730;2023-02-19T06:34:38;4.73;;;4.47;;
5876;SDS011;2964;42.144;24.730;2023-02-19T06:37:05;4.83;;;4.53;;
5876;SDS011;2964;42.144;24.730;2023-02-19T06:39:32;5.37;;;4.87;;
5876;SDS011;2964;42.144;24.730;2023-02-19T06:41:58;7.97;;;4.70;;
5876;SDS011;2964;42.144;24.730;2023-02-19T06:44:25;5.60;;;5.10;;
5876;SDS011;2964;42.144;24.730;2023-02-19T06:46:53;6.30;;;5.80;;
5876;SDS011;2964;42.144;24.730;2023-02-19T06:49:21;7.27;;;6.60;;
5876;SDS011;2964;42.144;24.730;2023-02-19T06:51:48;6.90;;;5.70;;
5876;SDS011;2964;42.144;24.730;2023-02-19T06:54:15;5.67;;;5.27;;
5876;SDS011;2964;42.144;24.730;2023-02-19T06:56:41;6.20;;;5.60;;
5876;SDS011;2964;42.144;24.730;2023-02-19T06:59:09;5.53;;;5.13;;
5876;SDS011;2964;42.144;24.730;2023-02-19T07:01:37;8.77;;;5.40;;
5876;SDS011;2964;42.144;24.730;2023-02-19T07:04:05;5.60;;;5.13;;
5876;SDS011;2964;42.144;24.730;2023-02-19T07:06:34;5.77;;;5.17;;
5876;SDS011;2964;42.144;24.730;2023-02-19T07:09:02;5.97;;;5.40;;
5876;SDS011;2964;42.144;24.730;2023-02-19T07:11:30;6.07;;;5.67;;
5876;SDS011;2964;42.144;24.730;2023-02-19T07:13:59;5.60;;;5.30;;
5876;SDS011;2964;42.144;24.730;2023-02-19T07:16:27;6.57;;;6.10;;
5876;SDS011;2964;42.144;24.730;2023-02-19T07:18:54;5.80;;;5.50;;
5876;SDS011;2964;42.144;24.730;2023-02-19T07:21:22;6.53;;;6.13;;
5876;SDS011;2964;42.144;24.730;2023-02-19T07:23:50;5.87;;;5.33;;
5876;SDS011;2964;42.144;24.730;2023-02-19T07:26:17;5.53;;;5.13;;
5876;SDS011;2964;42.144;24.730;2023-02-19T07:28:45;5.40;;;4.90;;
5876;SDS011;2964;42.144;24.730;2023-02-19T07:31:17;7.77;;;5.80;;
5876;SDS011;2964;42.144;24.730;2023-02-19T07:33:45;5.77;;;5.47;;
5876;SDS011;2964;42.144;24.730;2023-02-19T07:36:12;6.00;;;5.50;;
5876;SDS011;2964;42.144;24.730;2023-02-19T07:38:40;6.00;;;5.50;;
5876;SDS011;2964;42.144;24.730;2023-02-19T07:41:11;5.63;;;5.33;;
5876;SDS011;2964;42.144;24.730;2023-02-19T07:43:39;19.60;;;5.90;;
5876;SDS011;2964;42.144;24.730;2023-02-19T07:46:06;9.97;;;5.43;;
5876;SDS011;2964;42.144;24.730;2023-02-19T07:48:34;5.17;;;4.87;;
5876;SDS011;2964;42.144;24.730;2023-02-19T07:51:01;5.73;;;5.33;;
5876;SDS011;2964;42.144;24.730;2023-02-19T07:53:29;6.30;;;6.00;;
5876;SDS011;2964;42.144;24.730;2023-02-19T07:55:57;6.40;;;5.80;;
5876;SDS011;2964;42.144;24.730;2023-02-19T07:58:27;6.27;;;5.97;;
5876;SDS011;2964;42.144;24.730;2023-02-19T08:00:53;6.97;;;6.00;;
5876;SDS011;2964;42.144;24.730;2023-02-19T08:03:20;5.97;;;5.47;;
5876;SDS011;2964;42.144;24.730;2023-02-19T08:05:46;5.73;;;5.43;;
5876;SDS011;2964;42.144;24.730;2023-02-19T08:08:14;6.40;;;5.90;;
5876;SDS011;2964;42.144;24.730;2023-02-19T08:10:41;6.33;;;5.80;;
5876;SDS011;2964;42.144;24.730;2023-02-19T08:13:27;6.90;;;6.37;;
5876;SDS011;2964;42.144;24.730;2023-02-19T08:15:55;7.43;;;6.70;;
5876;SDS011;2964;42.144;24.730;2023-02-19T08:18:35;6.33;;;5.90;;
5876;SDS011;2964;42.144;24.730;2023-02-19T08:21:02;13.83;;;5.53;;
5876;SDS011;2964;42.144;24.730;2023-02-19T08:23:29;6.57;;;6.17;;
5876;SDS011;2964;42.144;24.730;2023-02-19T08:25:56;6.23;;;5.87;;
5876;SDS011;2964;42.144;24.730;2023-02-19T08:28:24;7.20;;;6.50;;
5876;SDS011;2964;42.144;24.730;2023-02-19T08:30:56;6.73;;;6.03;;
5876;SDS011;2964;42.144;24.730;2023-02-19T08:33:24;7.30;;;6.63;;
5876;SDS011;2964;42.144;24.730;2023-02-19T08:35:51;7.13;;;5.97;;
5876;SDS011;2964;42.144;24.730;2023-02-19T08:38:18;7.40;;;6.50;;
5876;SDS011;2964;42.144;24.730;2023-02-19T08:40:45;7.03;;;6.53;;
5876;SDS011;2964;42.144;24.730;2023-02-19T08:43:12;8.73;;;5.90;;
5876;SDS011;2964;42.144;24.730;2023-02-19T08:45:42;21.27;;;7.27;;
5876;SDS011;2964;42.144;24.730;2023-02-19T08:48:11;7.60;;;6.87;;
5876;SDS011;2964;42.144;24.730;2023-02-19T08:50:38;6.90;;;6.30;;
5876;SDS011;2964;42.144;24.730;2023-02-19T08:53:05;7.90;;;7.10;;
5876;SDS011;2964;42.144;24.730;2023-02-19T08:55:32;8.90;;;7.00;;
5876;SDS011;2964;42.144;24.730;2023-02-19T08:57:59;6.67;;;6.07;;
5876;SDS011;2964;42.144;24.730;2023-02-19T09:00:26;9.20;;;6.97;;
5876;SDS011;2964;42.144;24.730;2023-02-19T09:02:54;7.47;;;6.90;;
5876;SDS011;2964;42.144;24.730;2023-02-19T09:05:23;10.17;;;7.10;;
5876;SDS011;2964;42.144;24.730;2023-02-19T09:07:49;9.25;;;7.05;;
5876;SDS011;2964;42.144;24.730;2023-02-19T09:10:21;6.93;;;6.50;;
5876;SDS011;2964;42.144;24.730;2023-02-19T09:12:47;8.35;;;7.45;;
5876;SDS011;2964;42.144;24.730;2023-02-19T09:15:14;8.35;;;7.68;;
5876;SDS011;2964;42.144;24.730;2023-02-19T09:17:41;11.73;;;7.22;;
5876;SDS011;2964;42.144;24.730;2023-02-19T09:20:10;7.22;;;6.70;;
5876;SDS011;2964;42.144;24.730;2023-02-19T09:22:37;8.63;;;7.15;;
5876;SDS011;2964;42.144;24.730;2023-02-19T09:25:04;9.73;;;6.85;;
5876;SDS011;2964;42.144;24.730;2023-02-19T09:27:31;6.90;;;6.32;;
5876;SDS011;2964;42.144;24.730;2023-02-19T09:29:57;7.60;;;6.93;;
5876;SDS011;2964;42.144;24.730;2023-02-19T09:32:24;7.65;;;6.95;;
5876;SDS011;2964;42.144;24.730;2023-02-19T09:34:51;8.25;;;7.50;;
5876;SDS011;2964;42.144;24.730;2023-02-19T09:37:19;7.68;;;7.00;;
5876;SDS011;2964;42.144;24.730;2023-02-19T09:39:50;7.57;;;6.90;;
5876;SDS011;2964;42.144;24.730;2023-02-19T09:42:17;7.40;;;6.90;;
5876;SDS011;2964;42.144;24.730;2023-02-19T09:44:47;8.50;;;7.50;;
5876;SDS011;2964;42.144;24.730;2023-02-19T09:47:16;10.13;;;7.40;;
5876;SDS011;2964;42.144;24.730;2023-02-19T09:49:47;6.90;;;6.40;;
5876;SDS011;2964;42.144;24.730;2023-02-19T09:52:19;7.20;;;6.60;;
5876;SDS011;2964;42.144;24.730;2023-02-19T09:54:52;7.75;;;7.07;;
5876;SDS011;2964;42.144;24.730;2023-02-19T09:57:23;8.05;;;7.32;;
5876;SDS011;2964;42.144;24.730;2023-02-19T09:59:55;7.53;;;6.90;;
5876;SDS011;2964;42.144;24.730;2023-02-19T10:02:27;7.80;;;7.07;;
5876;SDS011;2964;42.144;24.730;2023-02-19T10:04:55;6.70;;;6.40;;
5876;SDS011;2964;42.144;24.730;2023-02-19T10:07:24;7.68;;;6.95;;
5876;SDS011;2964;42.144;24.730;2023-02-19T10:09:57;7.43;;;6.93;;
5876;SDS011;2964;42.144;24.730;2023-02-19T10:12:27;8.13;;;7.72;;
5876;SDS011;2964;42.144;24.730;2023-02-19T10:14:56;7.30;;;6.68;;
5876;SDS011;2964;42.144;24.730;2023-02-19T10:17:30;7.28;;;6.80;;
5876;SDS011;2964;42.144;24.730;2023-02-19T10:19:58;6.75;;;6.35;;
5876;SDS011;2964;42.144;24.730;2023-02-19T10:22:28;7.35;;;6.95;;
5876;SDS011;2964;42.144;24.730;2023-02-19T10:24:56;6.93;;;6.53;;
5876;SDS011;2964;42.144;24.730;2023-02-19T10:27:25;7.40;;;6.30;;
5876;SDS011;2964;42.144;24.730;2023-02-19T10:29:53;11.30;;;6.40;;
5876;SDS011;2964;42.144;24.730;2023-02-19T10:32:21;6.77;;;6.27;;
5876;SDS011;2964;42.144;24.730;2023-02-19T10:35:02;6.80;;;6.30;;
5876;SDS011;2964;42.144;24.730;2023-02-19T10:37:35;6.90;;;6.50;;
5876;SDS011;2964;42.144;24.730;2023-02-19T10:42:43;9.00;;;8.50;;
5876;SDS011;2964;42.144;24.730;2023-02-19T10:45:16;6.77;;;6.37;;
5876;SDS011;2964;42.144;24.730;2023-02-19T10:47:45;7.00;;;6.60;;
5876;SDS011;2964;42.144;24.730;2023-02-19T10:50:18;6.90;;;6.33;;
5876;SDS011;2964;42.144;24.730;2023-02-19T10:52:51;6.83;;;6.40;;
5876;SDS011;2964;42.144;24.730;2023-02-19T10:55:25;6.27;;;5.77;;
5876;SDS011;2964;42.144;24.730;2023-02-19T10:57:54;6.80;;;6.30;;
5876;SDS011;2964;42.144;24.730;2023-02-19T11:00:21;7.10;;;6.30;;
5876;SDS011;2964;42.144;24.730;2023-02-19T11:02:54;6.97;;;6.53;;
5876;SDS011;2964;42.144;24.730;2023-02-19T11:05:39;6.87;;;6.27;;
5876;SDS011;2964;42.144;24.730;2023-02-19T11:08:20;6.30;;;5.90;;
5876;SDS011;2964;42.144;24.730;2023-02-19T11:10:48;6.93;;;6.43;;
5876;SDS011;2964;42.144;24.730;2023-02-19T11:13:16;6.63;;;6.33;;
5876;SDS011;2964;42.144;24.730;2023-02-19T11:15:51;7.23;;;6.67;;
5876;SDS011;2964;42.144;24.730;2023-02-19T11:18:20;6.60;;;6.20;;
5876;SDS011;2964;42.144;24.730;2023-02-19T11:20:50;7.60;;;7.00;;
5876;SDS011;2964;42.144;24.730;2023-02-19T11:23:22;7.67;;;6.93;;
5876;SDS011;2964;42.144;24.730;2023-02-19T11:25:52;9.37;;;6.73;;
5876;SDS011;2964;42.144;24.730;2023-02-19T11:28:29;6.70;;;6.30;;
5876;SDS011;2964;42.144;24.730;2023-02-19T11:33:51;8.90;;;6.27;;
5876;SDS011;2964;42.144;24.730;2023-02-19T11:36:24;6.63;;;6.23;;
5876;SDS011;2964;42.144;24.730;2023-02-19T11:38:55;6.27;;;5.97;;
5876;SDS011;2964;42.144;24.730;2023-02-19T11:41:26;5.97;;;5.70;;
5876;SDS011;2964;42.144;24.730;2023-02-19T11:44:06;6.63;;;6.13;;
5876;SDS011;2964;42.144;24.730;2023-02-19T11:46:43;6.00;;;5.60;;
5876;SDS011;2964;42.144;24.730;2023-02-19T11:49:25;7.00;;;6.50;;
5876;SDS011;2964;42.144;24.730;2023-02-19T11:52:06;6.23;;;5.93;;
5876;SDS011;2964;42.144;24.730;2023-02-19T11:54:44;6.77;;;6.23;;
5876;SDS011;2964;42.144;24.730;2023-02-19T11:57:19;6.93;;;6.53;;
5876;SDS011;2964;42.144;24.730;2023-02-19T11:59:58;6.57;;;5.97;;
5876;SDS011;2964;42.144;24.730;2023-02-19T12:02:46;6.63;;;6.13;;
5876;SDS011;2964;42.144;24.730;2023-02-19T12:05:30;7.73;;;7.23;;
5876;SDS011;2964;42.144;24.730;2023-02-19T12:08:21;6.13;;;5.77;;
5876;SDS011;2964;42.144;24.730;2023-02-19T12:11:09;6.40;;;5.90;;
5876;SDS011;2964;42.144;24.730;2023-02-19T12:13:48;6.60;;;6.30;;
5876;SDS011;2964;42.144;24.730;2023-02-19T12:16:27;6.57;;;6.20;;
5876;SDS011;2964;42.144;24.730;2023-02-19T12:19:16;5.60;;;5.30;;
5876;SDS011;2964;42.144;24.730;2023-02-19T12:21:57;6.17;;;5.83;;
5876;SDS011;2964;42.144;24.730;2023-02-19T12:24:50;6.33;;;5.93;;
5876;SDS011;2964;42.144;24.730;2023-02-19T12:27:34;6.50;;;6.20;;
5876;SDS011;2964;42.144;24.730;2023-02-19T12:30:15;8.07;;;6.57;;
5876;SDS011;2964;42.144;24.730;2023-02-19T12:35:57;7.40;;;6.90;;
5876;SDS011;2964;42.144;24.730;2023-02-19T12:38:31;7.73;;;7.03;;
5876;SDS011;2964;42.144;24.730;2023-02-19T12:41:09;7.87;;;7.27;;
5876;SDS011;2964;42.144;24.730;2023-02-19T12:43:55;7.67;;;7.13;;
5876;SDS011;2964;42.144;24.730;2023-02-19T12:46:27;7.70;;;7.20;;
5876;SDS011;2964;42.144;24.730;2023-02-19T12:48:58;7.30;;;6.87;;
5876;SDS011;2964;42.144;24.730;2023-02-19T12:51:34;6.97;;;6.53;;
5876;SDS011;2964;42.144;24.730;2023-02-19T12:54:09;7.43;;;6.83;;
5876;SDS011;2964;42.144;24.730;2023-02-19T12:56:43;6.83;;;6.40;;
5876;SDS011;2964;42.144;24.730;2023-02-19T12:59:17;7.23;;;6.73;;
5876;SDS011;2964;42.144;24.730;2023-02-19T13:01:49;11.20;;;7.60;;
5876;SDS011;2964;42.144;24.730;2023-02-19T13:04:27;7.93;;;6.87;;
5876;SDS011;2964;42.144;24.730;2023-02-19T13:07:01;8.00;;;7.50;;
5876;SDS011;2964;42.144;24.730;2023-02-19T13:09:32;7.57;;;7.00;;
5876;SDS011;2964;42.144;24.730;2023-02-19T13:12:05;7.67;;;6.80;;
5876;SDS011;2964;42.144;24.730;2023-02-19T13:14:39;7.83;;;7.30;;
5876;SDS011;2964;42.144;24.730;2023-02-19T13:17:14;8.00;;;7.17;;
5876;SDS011;2964;42.144;24.730;2023-02-19T13:19:47;7.53;;;6.93;;
5876;SDS011;2964;42.144;24.730;2023-02-19T13:22:18;7.53;;;6.37;;
5876;SDS011;2964;42.144;24.730;2023-02-19T13:25:07;7.67;;;7.23;;
5876;SDS011;2964;42.144;24.730;2023-02-19T13:27:40;6.63;;;6.20;;
5876;SDS011;2964;42.144;24.730;2023-02-19T13:30:27;7.70;;;6.57;;
5876;SDS011;2964;42.144;24.730;2023-02-19T13:33:01;6.70;;;6.00;;
5876;SDS011;2964;42.144;24.730;2023-02-19T13:35:54;6.73;;;6.23;;
5876;SDS011;2964;42.144;24.730;2023-02-19T13:38:30;6.70;;;6.30;;
5876;SDS011;2964;42.144;24.730;2023-02-19T13:40:57;6.93;;;6.50;;
5876;SDS011;2964;42.144;24.730;2023-02-19T13:43:25;7.60;;;7.10;;
5876;SDS011;2964;42.144;24.730;2023-02-19T13:45:57;7.53;;;7.03;;
5876;SDS011;2964;42.144;24.730;2023-02-19T13:48:26;7.43;;;6.80;;
5876;SDS011;2964;42.144;24.730;2023-02-19T13:53:57;7.13;;;6.63;;
5876;SDS011;2964;42.144;24.730;2023-02-19T13:56:34;6.97;;;6.57;;
5876;SDS011;2964;42.144;24.730;2023-02-19T14:02:08;6.90;;;6.40;;
5876;SDS011;2964;42.144;24.730;2023-02-19T14:04:46;7.63;;;7.03;;
5876;SDS011;2964;42.144;24.730;2023-02-19T14:16:28;7.77;;;7.17;;
5876;SDS011;2964;42.144;24.730;2023-02-19T14:18:58;7.30;;;6.80;;
5876;SDS011;2964;42.144;24.730;2023-02-19T14:21:25;7.70;;;6.53;;
5876;SDS011;2964;42.144;24.730;2023-02-19T14:24:00;6.87;;;6.37;;
5876;SDS011;2964;42.144;24.730;2023-02-19T14:26:29;7.03;;;6.63;;
5876;SDS011;2964;42.144;24.730;2023-02-19T14:28:58;7.37;;;6.87;;
5876;SDS011;2964;42.144;24.730;2023-02-19T14:31:27;6.73;;;6.30;;
5876;SDS011;2964;42.144;24.730;2023-02-19T14:33:55;6.53;;;6.23;;
5876;SDS011;2964;42.144;24.730;2023-02-19T14:36:31;7.13;;;6.67;;
5876;SDS011;2964;42.144;24.730;2023-02-19T14:39:01;6.93;;;6.43;;
5876;SDS011;2964;42.144;24.730;2023-02-19T14:41:32;8.23;;;7.53;;
5876;SDS011;2964;42.144;24.730;2023-02-19T14:44:03;8.77;;;7.87;;
5876;SDS011;2964;42.144;24.730;2023-02-19T14:46:38;17.13;;;8.53;;
5876;SDS011;2964;42.144;24.730;2023-02-19T14:49:16;7.80;;;7.20;;
5876;SDS011;2964;42.144;24.730;2023-02-19T14:51:47;8.33;;;7.37;;
5876;SDS011;2964;42.144;24.730;2023-02-19T14:54:18;7.17;;;6.50;;
5876;SDS011;2964;42.144;24.730;2023-02-19T14:56:46;7.27;;;6.67;;
5876;SDS011;2964;42.144;24.730;2023-02-19T14:59:24;10.53;;;6.37;;
5876;SDS011;2964;42.144;24.730;2023-02-19T15:01:52;5.97;;;5.67;;
5876;SDS011;2964;42.144;24.730;2023-02-19T15:04:22;7.63;;;6.53;;
5876;SDS011;2964;42.144;24.730;2023-02-19T15:06:51;7.03;;;6.53;;
5876;SDS011;2964;42.144;24.730;2023-02-19T15:09:20;6.37;;;5.83;;
5876;SDS011;2964;42.144;24.730;2023-02-19T15:11:54;6.93;;;6.53;;
5876;SDS011;2964;42.144;24.730;2023-02-19T15:14:22;6.87;;;6.37;;
5876;SDS011;2964;42.144;24.730;2023-02-19T15:16:54;6.47;;;5.87;;
5876;SDS011;2964;42.144;24.730;2023-02-19T15:19:26;7.23;;;6.73;;
5876;SDS011;2964;42.144;24.730;2023-02-19T15:21:55;7.47;;;6.93;;
5876;SDS011;2964;42.144;24.730;2023-02-19T15:24:22;7.90;;;6.67;;
5876;SDS011;2964;42.144;24.730;2023-02-19T15:26:49;7.60;;;7.10;;
5876;SDS011;2964;42.144;24.730;2023-02-19T15:29:19;8.17;;;7.33;;
5876;SDS011;2964;42.144;24.730;2023-02-19T15:31:47;7.77;;;7.23;;
5876;SDS011;2964;42.144;24.730;2023-02-19T15:34:15;8.73;;;6.80;;
5876;SDS011;2964;42.144;24.730;2023-02-19T15:36:45;8.27;;;7.50;;
5876;SDS011;2964;42.144;24.730;2023-02-19T15:39:15;8.30;;;7.30;;
5876;SDS011;2964;42.144;24.730;2023-02-19T15:41:49;8.70;;;7.90;;
5876;SDS011;2964;42.144;24.730;2023-02-19T15:44:28;8.20;;;7.47;;
5876;SDS011;2964;42.144;24.730;2023-02-19T15:47:01;7.87;;;7.20;;
5876;SDS011;2964;42.144;24.730;2023-02-19T15:49:35;8.77;;;7.90;;